Chiyomaru No.28 — 28CHIYO — position and weather

sailwx.info

Track history (hours):
 
Tides and Currents Weather Stations Pressure Air Temp Water Temp Dewpoint Dewpoint Depression Visibility Wind Speed Wind Dir Waves Ship Positions

Chiyomaru No.28

Last reported at 2017-Sep-21 07:25 UTC. Time now 2017-Sep-21 17:41 UTC.
Position N 34°39' E 135°28'.

Length 18 m; draft 5 m.

Type: Tug. MMSI: 431000432.

Date/timePositionNaut miles runAvg speedWind from/ knotsBaromVisibWave heightAir tempDewpointWater temp
2017-Sep-21 07:25N 34°39' E 135°28'4 8.3
2017-Sep-21 06:53N 34°40' E 135°23'1 0.1
2017-Sep-21 01:35N 34°41' E 135°22'1 7.7
2017-Sep-21 01:30N 34°41' E 135°21'2 3.4
2017-Sep-21 00:57N 34°40' E 135°19'2 4.7
2017-Sep-21 00:29N 34°39' E 135°17'0 0.0
2017-Sep-20 23:59N 34°39' E 135°17'0 0.0
2017-Sep-20 23:29N 34°39' E 135°17'0 0.5
2017-Sep-20 22:56N 34°39' E 135°17'2 5.5
2017-Sep-20 22:30N 34°40' E 135°20'2 2.8
2017-Sep-20 21:58N 34°41' E 135°21'1 2.2
2017-Sep-20 21:30N 34°40' E 135°22'4 0.3
2017-Sep-20 07:52N 34°39' E 135°27'4 0.5
2017-Sep-19 23:41N 34°41' E 135°22'1 6.2
2017-Sep-19 23:30N 34°41' E 135°21'1 1.3
2017-Sep-19 22:59N 34°41' E 135°20'0 0.1
2017-Sep-19 22:18N 34°41' E 135°20'0 0.0
2017-Sep-19 21:58N 34°41' E 135°20'3 5.7
2017-Sep-19 21:30N 34°40' E 135°23'3 0.2
2017-Sep-19 07:56N 34°39' E 135°27'4 0.5
2017-Sep-18 22:48N 34°41' E 135°22'2 4.7
2017-Sep-18 22:25N 34°41' E 135°20'2 3.9
2017-Sep-18 21:54N 34°43' E 135°21'3 6.2
2017-Sep-18 21:29N 34°40' E 135°22'  
2017-Sep-15 03:37N 34°39' E 135°27'2 8.6
2017-Sep-15 03:25N 34°39' E 135°25'3 3.0
2017-Sep-15 02:32N 34°41' E 135°22'1 8.6
2017-Sep-15 02:22N 34°42' E 135°21'1 0.5
2017-Sep-15 00:07N 34°43' E 135°21'0 0.0
2017-Sep-14 23:49N 34°43' E 135°21'0 0.0
2017-Sep-14 23:16N 34°43' E 135°21'0 0.2
2017-Sep-14 23:00N 34°43' E 135°21'2 3.5
2017-Sep-14 22:25N 34°41' E 135°21'0 0.1
2017-Sep-14 21:46N 34°41' E 135°21'2 6.9
2017-Sep-14 21:29N 34°40' E 135°23'4 0.3
2017-Sep-14 08:37N 34°39' E 135°28'2 8.1
2017-Sep-14 08:25N 34°39' E 135°26'3 8.3
2017-Sep-14 08:00N 34°40' E 135°22'1 0.1
2017-Sep-13 22:05N 34°40' E 135°23'4 0.1
2017-Sep-12 08:05N 34°39' E 135°28'1 8.3
2017-Sep-12 07:58N 34°39' E 135°27'4 0.7
2017-Sep-12 02:14N 34°41' E 135°22'0 0.2
2017-Sep-12 01:49N 34°41' E 135°22'1 2.7
2017-Sep-12 01:17N 34°40' E 135°21'2 7.0
2017-Sep-12 00:57N 34°40' E 135°18'1 2.1
2017-Sep-12 00:27N 34°39' E 135°17'0 0.0
2017-Sep-11 23:57N 34°39' E 135°17'0 0.0
2017-Sep-11 23:27N 34°39' E 135°17'0 0.5
2017-Sep-11 23:00N 34°39' E 135°17'2 4.4
2017-Sep-11 22:28N 34°41' E 135°19'1 2.8
2017-Sep-11 21:59N 34°41' E 135°21'2 5.0
2017-Sep-11 21:29N 34°40' E 135°24'4 0.3
2017-Sep-11 08:46N 34°39' E 135°28'2 8.3
2017-Sep-11 08:30N 34°39' E 135°25'4 6.8
2017-Sep-11 07:55N 34°41' E 135°21'  
Track history (hours):
 
Tides and Currents Weather Stations Pressure Air Temp Water Temp Dewpoint Dewpoint Depression Visibility Wind Speed Wind Dir Waves Ship Positions

Chiyomaru No.28

Last reported at 2017-Sep-21 07:25 UTC. Time now 2017-Sep-21 17:41 UTC.
Position N 34°39' E 135°28'.

Length 18 m; draft 5 m.

Type: Tug. MMSI: 431000432.

Date/timePositionNaut miles runAvg speedWind from/ knotsBaromVisibWave heightAir tempDewpointWater temp
2017-Sep-21 07:25N 34°39' E 135°28'4 8.3
2017-Sep-21 06:53N 34°40' E 135°23'1 0.1
2017-Sep-21 01:35N 34°41' E 135°22'1 7.7
2017-Sep-21 01:30N 34°41' E 135°21'2 3.4
2017-Sep-21 00:57N 34°40' E 135°19'2 4.7
2017-Sep-21 00:29N 34°39' E 135°17'0 0.0
2017-Sep-20 23:59N 34°39' E 135°17'0 0.0
2017-Sep-20 23:29N 34°39' E 135°17'0 0.5
2017-Sep-20 22:56N 34°39' E 135°17'2 5.5
2017-Sep-20 22:30N 34°40' E 135°20'2 2.8
2017-Sep-20 21:58N 34°41' E 135°21'1 2.2
2017-Sep-20 21:30N 34°40' E 135°22'4 0.3
2017-Sep-20 07:52N 34°39' E 135°27'4 0.5
2017-Sep-19 23:41N 34°41' E 135°22'1 6.2
2017-Sep-19 23:30N 34°41' E 135°21'1 1.3
2017-Sep-19 22:59N 34°41' E 135°20'0 0.1
2017-Sep-19 22:18N 34°41' E 135°20'0 0.0
2017-Sep-19 21:58N 34°41' E 135°20'3 5.7
2017-Sep-19 21:30N 34°40' E 135°23'3 0.2
2017-Sep-19 07:56N 34°39' E 135°27'4 0.5
2017-Sep-18 22:48N 34°41' E 135°22'2 4.7
2017-Sep-18 22:25N 34°41' E 135°20'2 3.9
2017-Sep-18 21:54N 34°43' E 135°21'3 6.2
2017-Sep-18 21:29N 34°40' E 135°22'  
2017-Sep-15 03:37N 34°39' E 135°27'2 8.6
2017-Sep-15 03:25N 34°39' E 135°25'3 3.0
2017-Sep-15 02:32N 34°41' E 135°22'1 8.6
2017-Sep-15 02:22N 34°42' E 135°21'1 0.5
2017-Sep-15 00:07N 34°43' E 135°21'0 0.0
2017-Sep-14 23:49N 34°43' E 135°21'0 0.0
2017-Sep-14 23:16N 34°43' E 135°21'0 0.2
2017-Sep-14 23:00N 34°43' E 135°21'2 3.5
2017-Sep-14 22:25N 34°41' E 135°21'0 0.1
2017-Sep-14 21:46N 34°41' E 135°21'2 6.9
2017-Sep-14 21:29N 34°40' E 135°23'4 0.3
2017-Sep-14 08:37N 34°39' E 135°28'2 8.1
2017-Sep-14 08:25N 34°39' E 135°26'3 8.3
2017-Sep-14 08:00N 34°40' E 135°22'1 0.1
2017-Sep-13 22:05N 34°40' E 135°23'4 0.1
2017-Sep-12 08:05N 34°39' E 135°28'1 8.3
2017-Sep-12 07:58N 34°39' E 135°27'4 0.7
2017-Sep-12 02:14N 34°41' E 135°22'0 0.2
2017-Sep-12 01:49N 34°41' E 135°22'1 2.7
2017-Sep-12 01:17N 34°40' E 135°21'2 7.0
2017-Sep-12 00:57N 34°40' E 135°18'1 2.1
2017-Sep-12 00:27N 34°39' E 135°17'0 0.0
2017-Sep-11 23:57N 34°39' E 135°17'0 0.0
2017-Sep-11 23:27N 34°39' E 135°17'0 0.5
2017-Sep-11 23:00N 34°39' E 135°17'2 4.4
2017-Sep-11 22:28N 34°41' E 135°19'1 2.8
2017-Sep-11 21:59N 34°41' E 135°21'2 5.0
2017-Sep-11 21:29N 34°40' E 135°24'4 0.3
2017-Sep-11 08:46N 34°39' E 135°28'2 8.3
2017-Sep-11 08:30N 34°39' E 135°25'4 6.8
2017-Sep-11 07:55N 34°41' E 135°21'  

Dump ship's entire track history